Time;durP1;ratioP1;P1;durP2;ratioP2;P2;SDS_P1;SDS_P2;PMS_P1;PMS_P2;Temp;Humidity;BMP_temperature;BMP_pressure;BME280_temperature;BME280_humidity;BME280_pressure;Samples;Min_cycle;Max_cycle;Signal;HPM_P1;HPM_P2
2021/12/06 02:59:28;;;;;;;;;;;;;;;;;;;;;
2021/12/06 03:49:43;;;;;;;;;;;;;;;;;;;;;
2021/12/06 05:14:26;;;;;;;;;;;;;;;;;;;;;
2021/12/06 05:41:28;;;;;;;;;;;;;;;;;;;;;
2021/12/06 05:51:14;;;;;;;;;;;;;;;;;;;;;
2021/12/06 05:54:36;;;;;;;;;;;;;;;;;;;;;
2021/12/06 05:57:12;;;;;;;51.92;31.88;;;5.30;96.20;;;;;;5877024;24;20091;-89
2021/12/06 06:03:22;;;;;;;;;;;;;;;;;;;;;
2021/12/06 06:09:09;;;;;;;53.53;30.88;;;5.30;96.30;;;;;;6205167;23;20016;-92
2021/12/06 06:12:13;;;;;;;;;;;;;;;;;;;;;
2021/12/06 06:15:02;;;;;;;49.15;29.70;;;5.30;96.40;;;;;;6210009;23;20081;-91
2021/12/06 06:18:11;;;;;;;47.67;29.38;;;5.20;96.30;;;;;;6180977;23;20009;-90
2021/12/06 06:21:19;;;;;;;;;;;;;;;;;;;;;
2021/12/06 06:24:00;;;;;;;53.00;30.20;;;5.30;96.30;;;;;;6168465;23;20036;-89
2021/12/06 06:26:58;;;;;;;;;;;;;;;;;;;;;
2021/12/06 06:33:11;;;;;;;51.17;30.70;;;5.30;96.40;;;;;;6174385;23;20040;-87
2021/12/06 06:36:03;;;;;;;49.65;30.63;;;5.20;96.30;;;;;;6165570;23;20009;-87
2021/12/06 06:38:54;;;;;;;;;;;;;;;;;;;;;
2021/12/06 06:41:25;;;;;;;49.42;30.65;;;5.20;96.40;;;;;;6165544;23;20106;-89
2021/12/06 06:43:51;;;;;;;43.05;27.67;;;5.20;96.40;;;;;;6162985;23;20358;-87
2021/12/06 06:55:48;;;;;;;56.15;33.45;;;5.30;96.50;;;;;;6173681;23;20005;-88
2021/12/06 06:58:32;;;;;;;54.95;32.80;;;5.20;96.40;;;;;;6163518;23;20427;-89
2021/12/06 07:01:16;;;;;;;;;;;;;;;;;;;;;
2021/12/06 07:03:56;;;;;;;;;;;;;;;;;;;;;
2021/12/06 07:07:00;;;;;;;49.47;29.35;;;5.20;96.40;;;;;;6190858;23;20024;-87
2021/12/06 07:12:23;;;;;;;49.53;29.52;;;5.20;96.50;;;;;;6154400;23;20024;-87
2021/12/06 07:14:54;;;;;;;53.95;31.88;;;5.30;96.50;;;;;;6163631;23;20005;-88
2021/12/06 07:17:52;;;;;;;;;;;5.30;96.50;;;;;;6190254;23;20007;-89
2021/12/06 07:20:29;;;;;;;;;;;;;;;;;;;;;
2021/12/06 07:23:03;;;;;;;43.58;27.95;;;5.20;96.40;;;;;;6190672;23;20107;-89
2021/12/06 07:25:45;;;;;;;;;;;;;;;;;;;;;
2021/12/06 07:28:14;;;;;;;43.72;27.15;;;5.20;96.50;;;;;;6189920;23;20053;-88
2021/12/06 07:30:48;;;;;;;46.03;28.08;;;5.20;96.50;;;;;;6188046;23;20431;-88
2021/12/06 07:33:37;;;;;;;48.92;30.60;;;5.20;96.50;;;;;;6188117;23;20060;-88
2021/12/06 07:39:14;;;;;;;53.75;31.00;;;5.20;96.50;;;;;;6179428;23;20074;-89
2021/12/06 07:42:13;;;;;;;;;;;;;;;;;;;;;
2021/12/06 07:44:52;;;;;;;55.97;31.70;;;5.20;96.50;;;;;;6213388;23;20046;-88
2021/12/06 07:47:18;;;;;;;59.53;32.50;;;5.20;96.50;;;;;;6175114;23;20009;-87
2021/12/06 07:52:41;;;;;;;46.53;30.15;;;5.30;96.50;;;;;;6189916;23;20012;-87
2021/12/06 07:55:20;;;;;;;44.80;27.42;;;5.20;96.50;;;;;;6188126;23;20067;-88
2021/12/06 07:57:46;;;;;;;37.38;24.73;;;5.30;96.50;;;;;;6163358;23;19997;-88
2021/12/06 08:00:26;;;;;;;38.40;24.40;;;5.30;96.70;;;;;;6162732;23;20008;-90
2021/12/06 08:02:57;;;;;;;41.38;25.65;;;5.30;96.40;;;;;;6187709;23;20063;-88
2021/12/06 08:05:43;;;;;;;;;;;;;;;;;;;;;
2021/12/06 08:08:22;;;;;;;36.03;23.38;;;5.20;96.40;;;;;;6189201;23;20092;-88
2021/12/06 08:11:02;;;;;;;33.20;22.80;;;5.20;96.40;;;;;;6187873;23;20031;-87
2021/12/06 08:13:43;;;;;;;34.40;22.27;;;5.20;96.40;;;;;;6189135;23;20067;-88
2021/12/06 08:16:18;;;;;;;;;;;5.20;96.40;;;;;;6189133;23;20086;-88
2021/12/06 08:18:52;;;;;;;31.48;20.88;;;5.20;96.40;;;;;;6188059;23;19907;-88
2021/12/06 08:21:24;;;;;;;32.42;20.95;;;5.20;96.40;;;;;;6161917;23;20005;-88
2021/12/06 08:23:56;;;;;;;36.67;23.48;;;5.20;96.40;;;;;;6188072;23;20036;-89
2021/12/06 08:27:00;;;;;;;33.17;22.52;;;5.20;96.40;;;;;;6187804;23;19997;-89
2021/12/06 08:29:42;;;;;;;34.42;23.30;;;5.20;96.40;;;;;;6188673;23;20020;-90
2021/12/06 08:32:10;;;;;;;37.97;24.13;;;5.20;96.30;;;;;;6162520;23;20005;-88
2021/12/06 08:34:41;;;;;;;32.90;22.83;;;5.20;96.30;;;;;;6187509;23;20006;-89
2021/12/06 08:37:13;;;;;;;34.25;21.88;;;5.20;96.30;;;;;;6188760;23;19997;-89
2021/12/06 08:39:45;;;;;;;35.78;22.88;;;5.20;96.30;;;;;;6188383;23;20008;-89
2021/12/06 08:42:41;;;;;;;35.60;23.85;;;5.20;96.30;;;;;;6188990;23;20061;-90
2021/12/06 08:45:31;;;;;;;33.97;21.20;;;5.20;96.40;;;;;;6164019;23;20009;-88
2021/12/06 08:48:05;;;;;;;32.60;22.20;;;5.20;96.30;;;;;;6161973;23;20500;-87
2021/12/06 08:50:31;;;;;;;33.35;22.65;;;5.20;96.30;;;;;;6187861;23;20004;-88
2021/12/06 08:53:02;;;;;;;29.33;21.35;;;5.20;96.30;;;;;;6187854;23;20004;-88
2021/12/06 08:55:38;;;;;;;27.85;20.17;;;5.20;96.30;;;;;;6189712;23;20007;-89
2021/12/06 08:58:53;;;;;;;28.58;20.27;;;5.20;96.30;;;;;;6187631;23;20312;-89
2021/12/06 09:01:25;;;;;;;29.08;19.83;;;5.20;96.30;;;;;;6170702;23;19998;-90
2021/12/06 09:03:54;;;;;;;31.83;20.30;;;5.20;96.30;;;;;;6164440;23;20048;-88
2021/12/06 09:06:38;;;;;;;31.67;21.70;;;5.20;96.30;;;;;;6199164;23;20000;-92
2021/12/06 09:09:20;;;;;;;30.33;20.00;;;5.20;96.30;;;;;;6211695;23;20005;-87
2021/12/06 09:12:30;;;;;;;31.52;21.10;;;5.20;96.40;;;;;;6164441;23;20009;-91
2021/12/06 09:15:12;;;;;;;35.47;20.42;;;5.20;96.40;;;;;;6207740;23;20009;-87
2021/12/06 09:18:04;;;;;;;30.77;21.13;;;5.20;96.30;;;;;;6190240;23;19997;-89
2021/12/06 09:20:46;;;;;;;30.25;20.17;;;5.20;96.30;;;;;;6187845;23;20009;-87
2021/12/06 09:23:23;;;;;;;28.35;21.02;;;5.20;96.30;;;;;;6187869;23;20024;-88
2021/12/06 09:26:03;;;;;;;30.52;21.08;;;5.20;96.30;;;;;;6188482;23;20012;-88
2021/12/06 09:28:42;;;;;;;31.80;21.33;;;5.20;96.30;;;;;;6164270;23;20072;-89
2021/12/06 09:31:18;;;;;;;31.92;21.20;;;5.20;96.30;;;;;;6187968;23;20001;-89
2021/12/06 09:33:55;;;;;;;33.38;22.65;;;5.20;96.30;;;;;;6187506;23;20036;-88
2021/12/06 09:36:33;;;;;;;31.52;21.48;;;5.20;96.30;;;;;;6188488;23;20005;-87
2021/12/06 09:39:13;;;;;;;30.38;21.38;;;5.20;96.30;;;;;;6187738;23;20077;-89
2021/12/06 09:41:45;;;;;;;32.17;21.15;;;5.20;96.30;;;;;;6163082;23;20005;-90
2021/12/06 09:44:14;;;;;;;30.23;21.15;;;5.20;96.30;;;;;;6190590;23;20024;-91
2021/12/06 09:47:01;;;;;;;29.67;20.55;;;5.20;96.30;;;;;;6191868;23;20004;-91
2021/12/06 09:49:29;;;;;;;35.17;22.35;;;5.30;96.30;;;;;;6166296;23;20005;-89
2021/12/06 09:52:06;;;;;;;32.50;21.77;;;5.20;96.30;;;;;;6192000;23;20005;-89
2021/12/06 09:54:43;;;;;;;34.45;22.58;;;5.20;96.30;;;;;;6191576;23;20411;-90
2021/12/06 09:57:16;;;;;;;38.50;26.58;;;5.30;96.30;;;;;;6192183;23;20001;-90
2021/12/06 09:59:45;;;;;;;35.35;22.88;;;5.20;96.30;;;;;;6191018;23;20008;-87
2021/12/06 10:02:21;;;;;;;35.40;23.05;;;5.30;96.30;;;;;;6191327;23;20009;-90
2021/12/06 10:05:09;;;;;;;31.92;21.10;;;5.30;96.40;;;;;;6168503;23;20027;-91
2021/12/06 10:07:59;;;;;;;32.00;21.98;;;5.30;96.30;;;;;;6194119;23;20037;-90
2021/12/06 10:10:40;;;;;;;;;;;;;;;;;;;;;
2021/12/06 10:13:17;;;;;;;35.83;22.17;;;5.30;96.30;;;;;;6193221;23;20084;-90
2021/12/06 10:16:13;;;;;;;;;;;;;;;;;;;;;
2021/12/06 10:18:43;;;;;;;35.22;23.35;;;5.30;96.40;;;;;;6187756;23;20084;-89
2021/12/06 10:21:26;;;;;;;34.65;23.35;;;5.30;96.30;;;;;;6192700;23;20008;-90
2021/12/06 10:24:29;;;;;;;;;;;;;;;;;;;;;
2021/12/06 10:27:42;;;;;;;33.85;24.40;;;5.40;96.40;;;;;;6172816;23;20032;-88
2021/12/06 10:30:11;;;;;;;35.97;23.45;;;5.40;96.40;;;;;;6178142;23;20088;-87
2021/12/06 10:32:40;;;;;;;34.97;23.50;;;5.40;96.40;;;;;;6201595;23;20044;-88
2021/12/06 10:35:43;;;;;;;37.38;24.67;;;5.50;96.40;;;;;;6214093;23;19989;-90
2021/12/06 10:38:09;;;;;;;33.83;22.70;;;5.50;96.40;;;;;;6190403;22;20013;-89
2021/12/06 10:40:41;;;;;;;36.53;24.85;;;5.50;96.40;;;;;;6213729;23;19997;-90
2021/12/06 10:43:13;;;;;;;33.88;24.75;;;5.50;96.40;;;;;;6180365;23;20028;-88
2021/12/06 10:45:53;;;;;;;33.95;23.27;;;5.60;96.40;;;;;;6168070;23;20020;-89
2021/12/06 10:48:55;;;;;;;33.42;23.77;;;5.60;96.30;;;;;;6191845;23;20024;-88
2021/12/06 10:51:29;;;;;;;33.03;23.02;;;5.60;96.30;;;;;;6187113;23;20005;-88
2021/12/06 10:54:03;;;;;;;35.10;23.92;;;5.60;96.30;;;;;;6169746;23;20104;-87
2021/12/06 10:56:40;;;;;;;34.90;23.65;;;5.60;96.20;;;;;;6190374;23;19997;-87
2021/12/06 10:59:17;;;;;;;34.45;24.40;;;5.60;96.20;;;;;;6165353;23;20201;-88
2021/12/06 11:01:46;;;;;;;33.45;23.10;;;5.60;96.20;;;;;;6190730;23;20063;-90
2021/12/06 11:04:24;;;;;;;35.72;23.77;;;5.60;96.20;;;;;;6190803;23;20016;-88
2021/12/06 11:07:05;;;;;;;37.38;23.67;;;5.70;96.20;;;;;;6191714;23;20005;-88
2021/12/06 11:09:37;;;;;;;35.80;23.67;;;5.60;96.20;;;;;;6167210;23;20047;-89
2021/12/06 11:12:10;;;;;;;33.95;23.23;;;5.70;96.20;;;;;;6191342;23;20064;-88
2021/12/06 11:15:00;;;;;;;;;;;;;;;;;;;;;
2021/12/06 11:18:14;;;;;;;34.35;22.27;;;5.70;96.20;;;;;;6168672;23;20039;-89
2021/12/06 11:20:52;;;;;;;38.22;25.10;;;5.70;96.10;;;;;;6191313;23;20005;-89
2021/12/06 11:23:40;;;;;;;36.10;23.95;;;5.70;96.10;;;;;;6191257;23;20016;-88
2021/12/06 11:26:21;;;;;;;38.53;23.38;;;5.70;96.10;;;;;;6187006;23;20028;-89
2021/12/06 11:29:01;;;;;;;42.87;23.83;;;5.70;96.10;;;;;;6191479;23;20028;-89
2021/12/06 11:31:32;;;;;;;41.75;26.27;;;5.70;96.10;;;;;;6189844;23;20025;-88
2021/12/06 11:34:04;;;;;;;40.10;24.55;;;5.70;96.00;;;;;;6190344;23;20005;-87
2021/12/06 11:41:07;;;;;;;;;;;;;;;;;;;;;
2021/12/06 11:43:53;;;;;;;36.28;21.27;;;5.70;96.20;;;;;;6155147;23;20032;-88
2021/12/06 11:47:06;;;;;;;39.15;22.25;;;5.70;96.00;;;;;;6170689;23;20005;-89
2021/12/06 11:50:07;;;;;;;36.47;23.13;;;5.70;96.00;;;;;;6168614;23;20040;-89
2021/12/06 11:53:10;;;;;;;38.42;23.08;;;5.70;96.00;;;;;;6175585;23;20009;-88
2021/12/06 11:55:54;;;;;;;39.17;23.20;;;5.60;95.90;;;;;;6175076;23;20009;-89
2021/12/06 11:58:38;;;;;;;;;;;;;;;;;;;;;
2021/12/06 12:01:43;;;;;;;;;;;;;;;;;;;;;
2021/12/06 12:04:44;;;;;;;33.72;21.40;;;5.60;95.90;;;;;;6206322;23;19997;-89
2021/12/06 12:07:16;;;;;;;31.17;20.10;;;5.60;95.90;;;;;;6183377;23;20016;-90
2021/12/06 12:10:14;;;;;;;;;;;;;;;;;;;;;
2021/12/06 12:13:03;;;;;;;;;;;;;;;;;;;;;
2021/12/06 12:16:05;;;;;;;26.08;16.27;;;5.70;95.80;;;;;;6197690;23;20036;-90
2021/12/06 12:18:58;;;;;;;;;;;;;;;;;;;;;
2021/12/06 12:24:51;;;;;;;31.98;19.50;;;5.60;95.70;;;;;;6022715;23;20015;-90
2021/12/06 12:27:53;;;;;;;;;;;;;;;;;;;;;
2021/12/06 12:30:31;;;;;;;;;;;5.60;95.80;;;;;;6189420;23;20032;-90
2021/12/06 12:36:44;;;;;;;;;;;;;;;;;;;;;
2021/12/06 12:39:53;;;;;;;;;;;;;;;;;;;;;
2021/12/06 12:46:34;;;;;;;;;;;;;;;;;;;;;
2021/12/06 12:49:53;;;;;;;;;;;;;;;;;;;;;
2021/12/06 12:52:59;;;;;;;27.95;17.67;;;5.50;95.60;;;;;;6180406;23;20013;-92
2021/12/06 12:56:09;;;;;;;;;;;;;;;;;;;;;
2021/12/06 12:59:31;;;;;;;;;;;;;;;;;;;;;
2021/12/06 13:07:12;;;;;;;31.00;19.00;;;5.50;95.60;;;;;;6141192;23;20327;-90
2021/12/06 13:13:19;;;;;;;;;;;;;;;;;;;;;
2021/12/06 13:20:07;;;;;;;33.55;20.95;;;5.50;95.70;;;;;;6174011;23;20005;-92
2021/12/06 13:30:03;;;;;;;;;;;;;;;;;;;;;
2021/12/06 13:33:09;;;;;;;26.92;18.90;;;5.50;95.80;;;;;;6188698;23;20092;-89
2021/12/06 13:36:00;;;;;;;25.20;17.08;;;5.50;95.70;;;;;;6167416;23;20000;-90
2021/12/06 13:38:31;;;;;;;22.73;15.30;;;5.50;95.70;;;;;;6212733;23;20016;-90
2021/12/06 13:41:36;;;;;;;22.77;15.50;;;5.50;95.70;;;;;;6212500;22;20053;-90
2021/12/06 13:44:49;;;;;;;;;;;;;;;;;;;;;
2021/12/06 13:47:58;;;;;;;;;;;;;;;;;;;;;
2021/12/06 13:51:08;;;;;;;24.85;16.55;;;5.50;95.50;;;;;;6185444;23;20490;-91
2021/12/06 13:57:25;;;;;;;28.08;19.17;;;5.50;95.50;;;;;;6187010;23;20415;-89
2021/12/06 14:00:11;;;;;;;;;;;;;;;;;;;;;
2021/12/06 14:03:15;;;;;;;26.10;18.05;;;5.40;95.40;;;;;;6186779;23;20084;-89
2021/12/06 14:06:08;;;;;;;26.65;18.60;;;5.50;95.40;;;;;;6184892;23;20088;-89
2021/12/06 14:08:34;;;;;;;25.58;17.30;;;5.40;95.40;;;;;;6181442;23;20001;-90
2021/12/06 14:18:27;;;;;;;21.77;15.68;;;5.30;95.30;;;;;;6125648;23;20021;-89
2021/12/06 14:21:18;;;;;;;;;;;;;;;;;;;;;
2021/12/06 14:27:36;;;;;;;20.98;15.38;;;5.30;95.30;;;;;;6141083;23;20395;-89
2021/12/06 14:30:23;;;;;;;;;;;;;;;;;;;;;
2021/12/06 14:33:31;;;;;;;;;;;;;;;;;;;;;
2021/12/06 14:36:01;;;;;;;21.35;14.40;;;5.20;95.20;;;;;;6158288;23;20057;-90
2021/12/06 14:38:57;;;;;;;;;;;;;;;;;;;;;
2021/12/06 14:41:30;;;;;;;21.30;15.23;;;5.20;95.30;;;;;;6158290;23;20090;-89
2021/12/06 14:44:17;;;;;;;;;;;;;;;;;;;;;
2021/12/06 14:47:22;;;;;;;;;;;;;;;;;;;;;
2021/12/06 14:50:06;;;;;;;23.15;14.90;;;5.10;95.30;;;;;;6158891;23;20081;-88
2021/12/06 14:52:48;;;;;;;23.73;15.93;;;5.20;95.30;;;;;;6132767;23;20331;-88
2021/12/06 14:59:08;;;;;;;;;;;;;;;;;;;;;
2021/12/06 15:02:31;;;;;;;25.55;16.90;;;5.10;95.20;;;;;;6182385;23;20005;-90
2021/12/06 15:05:58;;;;;;;26.00;16.17;;;5.10;95.20;;;;;;6159005;23;20009;-90
2021/12/06 15:08:38;;;;;;;25.77;16.67;;;5.10;95.20;;;;;;6140581;23;20065;-91
2021/12/06 15:14:45;;;;;;;25.05;16.50;;;5.00;95.20;;;;;;6140206;23;20013;-90
2021/12/06 15:18:01;;;;;;;;;;;5.00;95.20;;;;;;6158045;23;20014;-91
2021/12/06 15:20:56;;;;;;;25.83;16.55;;;5.00;95.20;;;;;;6045505;23;19901;-90
2021/12/06 15:24:09;;;;;;;25.58;16.10;;;5.00;95.20;;;;;;6071726;23;20010;-89
2021/12/06 15:26:57;;;;;;;;;;;;;;;;;;;;;
2021/12/06 15:30:30;;;;;;;;;;;;;;;;;;;;;
2021/12/06 15:36:49;;;;;;;;;;;;;;;;;;;;;
2021/12/06 15:39:18;;;;;;;27.02;17.00;;;4.90;95.30;;;;;;6041096;23;20082;-89
2021/12/06 15:42:02;;;;;;;31.08;19.73;;;4.80;95.30;;;;;;6015813;23;20011;-89
2021/12/06 15:44:48;;;;;;;28.20;18.55;;;4.80;95.30;;;;;;6100907;23;20001;-90
2021/12/06 15:47:29;;;;;;;27.95;17.98;;;4.80;95.30;;;;;;6157084;23;20368;-88
2021/12/06 15:50:00;;;;;;;25.85;17.00;;;4.80;95.40;;;;;;6132387;23;20412;-88
2021/12/06 15:56:24;;;;;;;27.25;18.15;;;4.80;95.40;;;;;;6085633;23;20045;-96
2021/12/06 17:07:02;;;;;;;;;;;;;;;;;;;;;
2021/12/06 17:10:26;;;;;;;17.83;12.40;;;5.00;95.70;;;;;;6162463;23;20101;-93
2021/12/06 17:13:36;;;;;;;;;;;;;;;;;;;;;
2021/12/06 17:17:05;;;;;;;;;;;;;;;;;;;;;
2021/12/06 17:31:21;;;;;;;18.42;13.07;;;5.00;95.70;;;;;;6051972;23;20167;-90
2021/12/06 18:27:40;;;;;;;10.48;7.53;;;5.10;95.40;;;;;;6224691;23;20338;-96
2021/12/06 18:30:37;;;;;;;;;;;;;;;;;;;;;
2021/12/06 18:33:54;;;;;;;;;;;;;;;;;;;;;
2021/12/06 18:37:32;;;;;;;;;;;;;;;;;;;;;
2021/12/06 18:44:09;;;;;;;;;;;;;;;;;;;;;
2021/12/06 18:54:19;;;;;;;9.20;6.53;;;5.10;95.10;;;;;;6184795;23;20013;-89
2021/12/06 18:57:23;;;;;;;7.68;5.95;;;5.10;95.10;;;;;;6180649;23;20083;-92
2021/12/06 19:00:48;;;;;;;;;;;;;;;;;;;;;
2021/12/06 19:04:25;;;;;;;;;;;;;;;;;;;;;
2021/12/06 19:07:19;;;;;;;;;;;;;;;;;;;;;
2021/12/06 19:10:25;;;;;;;;;;;;;;;;;;;;;
2021/12/06 19:20:14;;;;;;;;;;;;;;;;;;;;;
2021/12/06 19:23:21;;;;;;;8.80;7.03;;;5.20;95.10;;;;;;6205705;23;20471;-90
2021/12/06 19:29:34;;;;;;;;;;;;;;;;;;;;;
2021/12/06 19:32:51;;;;;;;9.25;7.20;;;5.20;95.00;;;;;;6244171;23;20012;-90
2021/12/06 19:35:43;;;;;;;8.90;6.97;;;5.20;95.10;;;;;;6154177;23;20070;-89
2021/12/06 19:42:41;;;;;;;;;;;;;;;;;;;;;
2021/12/06 19:45:29;;;;;;;;;;;;;;;;;;;;;
2021/12/06 19:48:44;;;;;;;;;;;;;;;;;;;;;
2021/12/06 19:52:10;;;;;;;;;;;;;;;;;;;;;
2021/12/06 19:58:55;;;;;;;;;;;;;;;;;;;;;
2021/12/06 20:01:53;;;;;;;8.27;6.90;;;5.10;95.10;;;;;;6016670;23;20074;-90
2021/12/06 20:05:00;;;;;;;7.68;6.18;;;5.10;95.10;;;;;;6126779;23;20024;-90
2021/12/06 20:18:33;;;;;;;;;;;;;;;;;;;;;
2021/12/06 20:21:55;;;;;;;;;;;;;;;;;;;;;
2021/12/06 20:31:37;;;;;;;;;;;;;;;;;;;;;
2021/12/06 20:34:50;;;;;;;;;;;;;;;;;;;;;
2021/12/06 20:41:43;;;;;;;;;;;;;;;;;;;;;
2021/12/06 20:47:49;;;;;;;9.55;6.38;;;5.00;95.20;;;;;;6184517;23;20016;-91
2021/12/06 20:51:03;;;;;;;;;;;;;;;;;;;;;
2021/12/06 20:54:18;;;;;;;8.90;6.50;;;5.00;95.20;;;;;;6178550;23;20002;-89
2021/12/06 21:00:32;;;;;;;;;;;;;;;;;;;;;
2021/12/06 21:03:54;;;;;;;;;;;;;;;;;;;;;
2021/12/06 21:24:40;;;;;;;;;;;;;;;;;;;;;
2021/12/06 21:28:15;;;;;;;;;;;;;;;;;;;;;
2021/12/06 21:30:46;;;;;;;;;;;;;;;;;;;;;
2021/12/06 21:38:16;;;;;;;7.63;6.10;;;4.70;95.30;;;;;;6006859;23;20091;-90
2021/12/06 21:45:16;;;;;;;;;;;;;;;;;;;;;
2021/12/06 21:58:17;;;;;;;;;;;;;;;;;;;;;
2021/12/06 22:07:28;;;;;;;;;;;;;;;;;;;;;
2021/12/06 22:14:03;;;;;;;;;;;;;;;;;;;;;
2021/12/06 22:20:34;;;;;;;8.13;6.35;;;4.10;95.10;;;;;;6026303;23;20021;-90
2021/12/06 22:23:49;;;;;;;;;;;;;;;;;;;;;
2021/12/06 22:43:02;;;;;;;;;;;;;;;;;;;;;
2021/12/06 22:58:39;;;;;;;;;;;;;;;;;;;;;
2021/12/06 23:05:06;;;;;;;;;;;;;;;;;;;;;
2021/12/06 23:07:55;;;;;;;8.27;6.53;;;3.40;95.10;;;;;;6173436;23;20093;-90
2021/12/06 23:14:02;;;;;;;7.68;6.25;;;3.40;95.10;;;;;;6185914;23;20009;-89
2021/12/06 23:17:12;;;;;;;8.30;6.30;;;3.40;95.10;;;;;;6186917;23;20009;-88
2021/12/06 23:19:49;;;;;;;8.38;6.60;;;3.30;95.10;;;;;;6185163;23;20008;-88
2021/12/06 23:23:08;;;;;;;;;;;;;;;;;;;;;
2021/12/06 23:26:24;;;;;;;8.13;6.43;;;3.30;95.20;;;;;;6182429;23;20507;-89
2021/12/06 23:32:53;;;;;;;7.50;5.93;;;3.30;95.20;;;;;;6172619;23;20427;-90
2021/12/06 23:56:49;;;;;;;8.45;5.68;;;3.20;95.40;;;;;;6084312;23;20015;-90
